sensor_id;sensor_type;location;lat;lon;timestamp;temperature;humidity
48998;DHT22;34807;51.456;7.244;2023-03-04T00:00:28;3.70;98.20
48998;DHT22;34807;51.456;7.244;2023-03-04T00:02:53;3.70;98.30
48998;DHT22;34807;51.456;7.244;2023-03-04T00:05:19;3.70;98.30
48998;DHT22;34807;51.456;7.244;2023-03-04T00:07:44;3.70;98.20
48998;DHT22;34807;51.456;7.244;2023-03-04T00:10:10;3.70;98.30
48998;DHT22;34807;51.456;7.244;2023-03-04T00:12:36;3.70;98.20
48998;DHT22;34807;51.456;7.244;2023-03-04T00:15:01;3.70;98.30
48998;DHT22;34807;51.456;7.244;2023-03-04T00:17:27;3.70;98.30
48998;DHT22;34807;51.456;7.244;2023-03-04T00:19:54;3.70;98.20
48998;DHT22;34807;51.456;7.244;2023-03-04T00:22:20;3.70;98.30
48998;DHT22;34807;51.456;7.244;2023-03-04T00:24:45;3.70;98.30
48998;DHT22;34807;51.456;7.244;2023-03-04T00:27:11;3.70;98.30
48998;DHT22;34807;51.456;7.244;2023-03-04T00:29:36;3.70;98.30
48998;DHT22;34807;51.456;7.244;2023-03-04T00:32:02;3.70;98.30
48998;DHT22;34807;51.456;7.244;2023-03-04T00:34:27;3.70;98.20
48998;DHT22;34807;51.456;7.244;2023-03-04T00:36:53;3.70;98.20
48998;DHT22;34807;51.456;7.244;2023-03-04T00:39:22;3.70;98.20
48998;DHT22;34807;51.456;7.244;2023-03-04T00:41:47;3.70;98.30
48998;DHT22;34807;51.456;7.244;2023-03-04T00:44:13;3.70;98.20
48998;DHT22;34807;51.456;7.244;2023-03-04T00:46:38;3.70;98.20
48998;DHT22;34807;51.456;7.244;2023-03-04T00:49:04;3.80;98.30
48998;DHT22;34807;51.456;7.244;2023-03-04T00:51:29;3.70;98.20
48998;DHT22;34807;51.456;7.244;2023-03-04T00:53:55;3.70;98.20
48998;DHT22;34807;51.456;7.244;2023-03-04T00:56:20;3.70;98.20
48998;DHT22;34807;51.456;7.244;2023-03-04T00:58:46;3.80;98.30
48998;DHT22;34807;51.456;7.244;2023-03-04T01:01:11;3.70;98.20
48998;DHT22;34807;51.456;7.244;2023-03-04T01:03:37;3.70;98.20
48998;DHT22;34807;51.456;7.244;2023-03-04T01:06:05;3.70;98.20
48998;DHT22;34807;51.456;7.244;2023-03-04T01:08:31;3.70;98.30
48998;DHT22;34807;51.456;7.244;2023-03-04T01:10:56;3.70;98.20
48998;DHT22;34807;51.456;7.244;2023-03-04T01:13:22;3.80;98.30
48998;DHT22;34807;51.456;7.244;2023-03-04T01:15:47;3.80;98.30
48998;DHT22;34807;51.456;7.244;2023-03-04T01:18:13;3.70;98.30
48998;DHT22;34807;51.456;7.244;2023-03-04T01:20:38;3.70;98.30
48998;DHT22;34807;51.456;7.244;2023-03-04T01:23:04;3.80;98.30
48998;DHT22;34807;51.456;7.244;2023-03-04T01:25:29;3.70;98.20
48998;DHT22;34807;51.456;7.244;2023-03-04T01:27:55;3.80;98.30
48998;DHT22;34807;51.456;7.244;2023-03-04T01:30:20;3.80;98.30
48998;DHT22;34807;51.456;7.244;2023-03-04T01:32:46;3.80;98.30
48998;DHT22;34807;51.456;7.244;2023-03-04T01:35:11;3.80;98.30
48998;DHT22;34807;51.456;7.244;2023-03-04T01:37:37;3.70;98.30
48998;DHT22;34807;51.456;7.244;2023-03-04T01:40:03;3.70;98.30
48998;DHT22;34807;51.456;7.244;2023-03-04T01:42:31;3.80;98.30
48998;DHT22;34807;51.456;7.244;2023-03-04T01:44:57;3.80;98.30
48998;DHT22;34807;51.456;7.244;2023-03-04T01:47:23;3.80;98.30
48998;DHT22;34807;51.456;7.244;2023-03-04T01:49:52;3.80;98.30
48998;DHT22;34807;51.456;7.244;2023-03-04T01:52:18;3.70;98.30
48998;DHT22;34807;51.456;7.244;2023-03-04T01:54:43;3.80;98.30
48998;DHT22;34807;51.456;7.244;2023-03-04T01:57:16;3.80;98.60
48998;DHT22;34807;51.456;7.244;2023-03-04T01:59:42;3.80;98.30
48998;DHT22;34807;51.456;7.244;2023-03-04T02:02:07;3.80;98.30
48998;DHT22;34807;51.456;7.244;2023-03-04T02:04:33;3.80;98.30
48998;DHT22;34807;51.456;7.244;2023-03-04T02:06:59;3.80;98.30
48998;DHT22;34807;51.456;7.244;2023-03-04T02:09:25;3.80;98.30
48998;DHT22;34807;51.456;7.244;2023-03-04T02:11:51;3.80;98.30
48998;DHT22;34807;51.456;7.244;2023-03-04T02:14:17;3.80;98.30
48998;DHT22;34807;51.456;7.244;2023-03-04T02:16:43;3.80;98.30
48998;DHT22;34807;51.456;7.244;2023-03-04T02:21:57;3.80;98.30
48998;DHT22;34807;51.456;7.244;2023-03-04T02:24:30;3.80;98.30
48998;DHT22;34807;51.456;7.244;2023-03-04T02:26:58;3.80;98.30
48998;DHT22;34807;51.456;7.244;2023-03-04T02:29:23;3.80;98.30
48998;DHT22;34807;51.456;7.244;2023-03-04T02:31:50;3.80;98.30
48998;DHT22;34807;51.456;7.244;2023-03-04T02:36:41;3.80;98.30
48998;DHT22;34807;51.456;7.244;2023-03-04T02:39:50;3.80;98.30
48998;DHT22;34807;51.456;7.244;2023-03-04T02:41:56;3.80;98.30
48998;DHT22;34807;51.456;7.244;2023-03-04T02:44:23;3.80;98.30
48998;DHT22;34807;51.456;7.244;2023-03-04T02:46:49;3.80;98.30
48998;DHT22;34807;51.456;7.244;2023-03-04T02:49:15;3.80;98.30
48998;DHT22;34807;51.456;7.244;2023-03-04T02:51:41;3.80;98.30
48998;DHT22;34807;51.456;7.244;2023-03-04T02:54:20;3.80;98.30
48998;DHT22;34807;51.456;7.244;2023-03-04T02:56:46;3.80;98.30
48998;DHT22;34807;51.456;7.244;2023-03-04T02:59:12;3.80;98.30
48998;DHT22;34807;51.456;7.244;2023-03-04T03:01:38;3.80;98.30
48998;DHT22;34807;51.456;7.244;2023-03-04T03:04:03;3.80;98.30
48998;DHT22;34807;51.456;7.244;2023-03-04T03:06:29;3.80;98.30
48998;DHT22;34807;51.456;7.244;2023-03-04T03:08:54;3.80;98.30
48998;DHT22;34807;51.456;7.244;2023-03-04T03:11:20;3.80;98.30
48998;DHT22;34807;51.456;7.244;2023-03-04T03:13:45;3.80;98.30
48998;DHT22;34807;51.456;7.244;2023-03-04T03:16:11;3.90;98.30
48998;DHT22;34807;51.456;7.244;2023-03-04T03:18:36;3.80;98.40
48998;DHT22;34807;51.456;7.244;2023-03-04T03:21:02;3.80;98.30
48998;DHT22;34807;51.456;7.244;2023-03-04T03:23:27;3.80;98.30
48998;DHT22;34807;51.456;7.244;2023-03-04T03:25:53;3.80;98.30
48998;DHT22;34807;51.456;7.244;2023-03-04T03:28:18;3.80;98.30
48998;DHT22;34807;51.456;7.244;2023-03-04T03:30:44;3.80;98.30
48998;DHT22;34807;51.456;7.244;2023-03-04T03:33:09;3.80;98.30
48998;DHT22;34807;51.456;7.244;2023-03-04T03:35:35;3.80;98.30
48998;DHT22;34807;51.456;7.244;2023-03-04T03:38:00;3.80;98.30
48998;DHT22;34807;51.456;7.244;2023-03-04T03:40:26;3.80;98.30
48998;DHT22;34807;51.456;7.244;2023-03-04T03:42:51;3.80;98.30
48998;DHT22;34807;51.456;7.244;2023-03-04T03:45:17;3.80;98.40
48998;DHT22;34807;51.456;7.244;2023-03-04T03:47:42;3.90;98.40
48998;DHT22;34807;51.456;7.244;2023-03-04T03:50:08;3.80;98.40
48998;DHT22;34807;51.456;7.244;2023-03-04T03:52:33;3.80;98.30
48998;DHT22;34807;51.456;7.244;2023-03-04T03:54:59;3.80;98.40
48998;DHT22;34807;51.456;7.244;2023-03-04T03:57:26;3.80;98.30
48998;DHT22;34807;51.456;7.244;2023-03-04T03:59:52;3.80;98.30
48998;DHT22;34807;51.456;7.244;2023-03-04T04:02:17;3.80;98.30
48998;DHT22;34807;51.456;7.244;2023-03-04T04:04:43;3.90;98.30
48998;DHT22;34807;51.456;7.244;2023-03-04T04:07:08;3.90;98.40
48998;DHT22;34807;51.456;7.244;2023-03-04T04:09:34;3.80;98.30
48998;DHT22;34807;51.456;7.244;2023-03-04T04:11:59;3.90;98.30
48998;DHT22;34807;51.456;7.244;2023-03-04T04:14:24;3.90;98.30
48998;DHT22;34807;51.456;7.244;2023-03-04T04:16:50;3.80;98.30
48998;DHT22;34807;51.456;7.244;2023-03-04T04:19:17;3.80;98.30
48998;DHT22;34807;51.456;7.244;2023-03-04T04:21:42;3.90;98.30
48998;DHT22;34807;51.456;7.244;2023-03-04T04:24:08;3.90;98.30
48998;DHT22;34807;51.456;7.244;2023-03-04T04:26:34;3.90;98.30
48998;DHT22;34807;51.456;7.244;2023-03-04T04:28:59;3.90;98.30
48998;DHT22;34807;51.456;7.244;2023-03-04T04:31:24;3.90;98.30
48998;DHT22;34807;51.456;7.244;2023-03-04T04:33:50;3.90;98.30
48998;DHT22;34807;51.456;7.244;2023-03-04T04:36:16;3.90;98.30
48998;DHT22;34807;51.456;7.244;2023-03-04T04:38:41;3.90;98.30
48998;DHT22;34807;51.456;7.244;2023-03-04T04:41:14;3.90;98.30
48998;DHT22;34807;51.456;7.244;2023-03-04T04:43:41;3.90;98.30
48998;DHT22;34807;51.456;7.244;2023-03-04T04:46:07;3.80;98.30
48998;DHT22;34807;51.456;7.244;2023-03-04T04:48:32;3.90;98.30
48998;DHT22;34807;51.456;7.244;2023-03-04T04:50:58;3.90;98.40
48998;DHT22;34807;51.456;7.244;2023-03-04T04:53:23;3.90;98.30
48998;DHT22;34807;51.456;7.244;2023-03-04T04:55:49;3.90;98.40
48998;DHT22;34807;51.456;7.244;2023-03-04T04:58:14;3.90;98.40
48998;DHT22;34807;51.456;7.244;2023-03-04T05:00:40;3.90;98.40
48998;DHT22;34807;51.456;7.244;2023-03-04T05:03:05;3.90;98.40
48998;DHT22;34807;51.456;7.244;2023-03-04T05:05:31;3.90;98.30
48998;DHT22;34807;51.456;7.244;2023-03-04T05:07:56;3.90;98.30
48998;DHT22;34807;51.456;7.244;2023-03-04T05:10:22;3.90;98.50
48998;DHT22;34807;51.456;7.244;2023-03-04T05:12:47;3.90;98.40
48998;DHT22;34807;51.456;7.244;2023-03-04T05:15:14;3.90;98.40
48998;DHT22;34807;51.456;7.244;2023-03-04T05:17:39;3.90;98.40
48998;DHT22;34807;51.456;7.244;2023-03-04T05:20:05;3.90;98.40
48998;DHT22;34807;51.456;7.244;2023-03-04T05:22:31;3.90;98.40
48998;DHT22;34807;51.456;7.244;2023-03-04T05:24:57;3.90;98.40
48998;DHT22;34807;51.456;7.244;2023-03-04T05:27:22;3.90;98.40
48998;DHT22;34807;51.456;7.244;2023-03-04T05:29:48;3.90;98.40
48998;DHT22;34807;51.456;7.244;2023-03-04T05:32:13;3.90;98.40
48998;DHT22;34807;51.456;7.244;2023-03-04T05:34:39;3.90;98.40
48998;DHT22;34807;51.456;7.244;2023-03-04T05:37:04;3.90;98.40
48998;DHT22;34807;51.456;7.244;2023-03-04T05:39:30;3.90;98.40
48998;DHT22;34807;51.456;7.244;2023-03-04T05:41:55;3.90;98.40
48998;DHT22;34807;51.456;7.244;2023-03-04T05:44:20;3.90;98.40
48998;DHT22;34807;51.456;7.244;2023-03-04T05:46:46;3.90;98.40
48998;DHT22;34807;51.456;7.244;2023-03-04T05:49:11;3.90;98.40
48998;DHT22;34807;51.456;7.244;2023-03-04T05:51:37;3.90;98.40
48998;DHT22;34807;51.456;7.244;2023-03-04T05:54:02;3.90;98.40
48998;DHT22;34807;51.456;7.244;2023-03-04T05:56:28;3.90;98.40
48998;DHT22;34807;51.456;7.244;2023-03-04T05:58:58;3.90;98.40
48998;DHT22;34807;51.456;7.244;2023-03-04T06:01:23;3.90;98.40
48998;DHT22;34807;51.456;7.244;2023-03-04T06:03:49;3.90;98.40
48998;DHT22;34807;51.456;7.244;2023-03-04T06:06:15;3.90;98.40
48998;DHT22;34807;51.456;7.244;2023-03-04T06:08:40;3.90;98.40
48998;DHT22;34807;51.456;7.244;2023-03-04T06:11:06;3.90;98.40
48998;DHT22;34807;51.456;7.244;2023-03-04T06:13:32;3.90;98.40
48998;DHT22;34807;51.456;7.244;2023-03-04T06:15:58;3.90;98.40
48998;DHT22;34807;51.456;7.244;2023-03-04T06:18:24;3.90;98.70
48998;DHT22;34807;51.456;7.244;2023-03-04T06:20:50;3.90;98.40
48998;DHT22;34807;51.456;7.244;2023-03-04T06:23:16;3.90;98.50
48998;DHT22;34807;51.456;7.244;2023-03-04T06:25:41;3.90;98.40
48998;DHT22;34807;51.456;7.244;2023-03-04T06:28:07;3.90;98.40
48998;DHT22;34807;51.456;7.244;2023-03-04T06:30:33;3.90;98.40
48998;DHT22;34807;51.456;7.244;2023-03-04T06:32:58;3.90;98.40
48998;DHT22;34807;51.456;7.244;2023-03-04T06:35:24;3.90;98.50
48998;DHT22;34807;51.456;7.244;2023-03-04T06:37:49;3.90;98.50
48998;DHT22;34807;51.456;7.244;2023-03-04T06:40:15;3.90;98.40
48998;DHT22;34807;51.456;7.244;2023-03-04T06:42:40;3.90;98.50
48998;DHT22;34807;51.456;7.244;2023-03-04T06:45:06;3.90;98.40
48998;DHT22;34807;51.456;7.244;2023-03-04T06:47:32;3.90;98.70
48998;DHT22;34807;51.456;7.244;2023-03-04T06:49:57;3.90;98.50
48998;DHT22;34807;51.456;7.244;2023-03-04T06:52:23;3.90;98.50
48998;DHT22;34807;51.456;7.244;2023-03-04T06:54:48;3.90;98.50
48998;DHT22;34807;51.456;7.244;2023-03-04T06:57:14;4.00;98.50
48998;DHT22;34807;51.456;7.244;2023-03-04T06:59:39;3.90;98.50
48998;DHT22;34807;51.456;7.244;2023-03-04T07:02:05;4.00;98.50
48998;DHT22;34807;51.456;7.244;2023-03-04T07:04:31;4.00;98.50
48998;DHT22;34807;51.456;7.244;2023-03-04T07:06:56;4.00;98.50
48998;DHT22;34807;51.456;7.244;2023-03-04T07:09:22;4.00;98.50
48998;DHT22;34807;51.456;7.244;2023-03-04T07:11:47;4.00;98.50
48998;DHT22;34807;51.456;7.244;2023-03-04T07:14:13;4.00;98.50
48998;DHT22;34807;51.456;7.244;2023-03-04T07:16:38;4.00;98.50
48998;DHT22;34807;51.456;7.244;2023-03-04T07:19:04;4.00;98.50
48998;DHT22;34807;51.456;7.244;2023-03-04T07:21:30;4.00;98.50
48998;DHT22;34807;51.456;7.244;2023-03-04T07:23:55;4.00;98.50
48998;DHT22;34807;51.456;7.244;2023-03-04T07:26:21;4.00;98.40
48998;DHT22;34807;51.456;7.244;2023-03-04T07:28:46;4.00;98.50
48998;DHT22;34807;51.456;7.244;2023-03-04T07:33:43;4.00;98.50
48998;DHT22;34807;51.456;7.244;2023-03-04T07:36:09;4.00;98.50
48998;DHT22;34807;51.456;7.244;2023-03-04T07:38:35;4.00;98.50
48998;DHT22;34807;51.456;7.244;2023-03-04T07:41:01;4.00;98.50
48998;DHT22;34807;51.456;7.244;2023-03-04T07:43:27;4.10;98.50
48998;DHT22;34807;51.456;7.244;2023-03-04T07:45:57;4.10;98.50
48998;DHT22;34807;51.456;7.244;2023-03-04T07:48:22;4.10;98.50
48998;DHT22;34807;51.456;7.244;2023-03-04T07:50:48;4.10;98.50
48998;DHT22;34807;51.456;7.244;2023-03-04T07:53:13;4.10;98.50
48998;DHT22;34807;51.456;7.244;2023-03-04T07:55:39;4.10;98.50
48998;DHT22;34807;51.456;7.244;2023-03-04T07:58:04;4.10;98.50
48998;DHT22;34807;51.456;7.244;2023-03-04T08:00:30;4.20;98.50
48998;DHT22;34807;51.456;7.244;2023-03-04T08:02:55;4.10;98.60
48998;DHT22;34807;51.456;7.244;2023-03-04T08:05:21;4.20;98.60
48998;DHT22;34807;51.456;7.244;2023-03-04T08:07:46;4.10;98.50
48998;DHT22;34807;51.456;7.244;2023-03-04T08:10:12;4.20;98.50
48998;DHT22;34807;51.456;7.244;2023-03-04T08:12:37;4.20;98.60
48998;DHT22;34807;51.456;7.244;2023-03-04T08:15:03;4.30;98.50
48998;DHT22;34807;51.456;7.244;2023-03-04T08:17:29;4.30;98.50
48998;DHT22;34807;51.456;7.244;2023-03-04T08:19:54;4.30;98.40
48998;DHT22;34807;51.456;7.244;2023-03-04T08:22:20;4.30;98.30
48998;DHT22;34807;51.456;7.244;2023-03-04T08:24:45;4.40;98.40
48998;DHT22;34807;51.456;7.244;2023-03-04T08:27:11;4.40;98.20
48998;DHT22;34807;51.456;7.244;2023-03-04T08:29:36;4.50;98.20
48998;DHT22;34807;51.456;7.244;2023-03-04T08:32:02;4.50;98.20
48998;DHT22;34807;51.456;7.244;2023-03-04T08:34:27;4.50;98.20
48998;DHT22;34807;51.456;7.244;2023-03-04T08:36:53;4.60;98.10
48998;DHT22;34807;51.456;7.244;2023-03-04T08:39:19;4.60;98.10
48998;DHT22;34807;51.456;7.244;2023-03-04T08:41:45;4.70;98.10
48998;DHT22;34807;51.456;7.244;2023-03-04T08:44:10;4.70;98.10
48998;DHT22;34807;51.456;7.244;2023-03-04T08:46:37;4.70;98.10
48998;DHT22;34807;51.456;7.244;2023-03-04T08:49:02;4.80;98.10
48998;DHT22;34807;51.456;7.244;2023-03-04T08:51:28;4.80;98.00
48998;DHT22;34807;51.456;7.244;2023-03-04T08:53:53;4.80;98.30
48998;DHT22;34807;51.456;7.244;2023-03-04T08:56:19;4.80;98.00
48998;DHT22;34807;51.456;7.244;2023-03-04T08:58:44;4.80;97.90
48998;DHT22;34807;51.456;7.244;2023-03-04T09:01:11;4.90;97.90
48998;DHT22;34807;51.456;7.244;2023-03-04T09:03:37;4.90;98.00
48998;DHT22;34807;51.456;7.244;2023-03-04T09:06:03;5.00;98.00
48998;DHT22;34807;51.456;7.244;2023-03-04T09:08:28;5.00;98.00
48998;DHT22;34807;51.456;7.244;2023-03-04T09:10:54;5.10;97.90
48998;DHT22;34807;51.456;7.244;2023-03-04T09:13:20;5.10;97.90
48998;DHT22;34807;51.456;7.244;2023-03-04T09:15:46;5.10;98.10
48998;DHT22;34807;51.456;7.244;2023-03-04T09:18:13;5.10;97.90
48998;DHT22;34807;51.456;7.244;2023-03-04T09:20:39;5.10;97.90
48998;DHT22;34807;51.456;7.244;2023-03-04T09:23:04;5.20;97.90
48998;DHT22;34807;51.456;7.244;2023-03-04T09:25:31;5.20;98.00
48998;DHT22;34807;51.456;7.244;2023-03-04T09:27:56;5.20;98.00
48998;DHT22;34807;51.456;7.244;2023-03-04T09:30:22;5.20;98.20
48998;DHT22;34807;51.456;7.244;2023-03-04T09:32:47;5.20;98.10
48998;DHT22;34807;51.456;7.244;2023-03-04T09:35:13;5.20;98.10
48998;DHT22;34807;51.456;7.244;2023-03-04T09:37:38;5.20;98.10
48998;DHT22;34807;51.456;7.244;2023-03-04T09:40:04;5.30;98.10
48998;DHT22;34807;51.456;7.244;2023-03-04T09:42:35;5.30;98.10
48998;DHT22;34807;51.456;7.244;2023-03-04T09:45:02;5.30;98.20
48998;DHT22;34807;51.456;7.244;2023-03-04T09:47:29;5.30;98.20
48998;DHT22;34807;51.456;7.244;2023-03-04T09:49:57;5.30;98.30
48998;DHT22;34807;51.456;7.244;2023-03-04T09:52:40;5.30;98.30
48998;DHT22;34807;51.456;7.244;2023-03-04T09:55:20;5.30;98.40
48998;DHT22;34807;51.456;7.244;2023-03-04T09:57:55;5.30;98.40
48998;DHT22;34807;51.456;7.244;2023-03-04T10:05:22;5.30;98.40
48998;DHT22;34807;51.456;7.244;2023-03-04T10:07:52;5.30;98.50
48998;DHT22;34807;51.456;7.244;2023-03-04T10:12:48;5.30;98.90
48998;DHT22;34807;51.456;7.244;2023-03-04T10:18:13;5.30;98.60
48998;DHT22;34807;51.456;7.244;2023-03-04T10:20:49;5.30;98.60
48998;DHT22;34807;51.456;7.244;2023-03-04T10:23:18;5.30;98.60
48998;DHT22;34807;51.456;7.244;2023-03-04T10:25:44;5.40;98.60
48998;DHT22;34807;51.456;7.244;2023-03-04T10:33:18;5.40;98.70
48998;DHT22;34807;51.456;7.244;2023-03-04T10:35:46;5.40;98.60
48998;DHT22;34807;51.456;7.244;2023-03-04T10:38:12;5.40;98.70
48998;DHT22;34807;51.456;7.244;2023-03-04T10:40:40;5.40;98.70
48998;DHT22;34807;51.456;7.244;2023-03-04T10:43:12;5.40;98.70
48998;DHT22;34807;51.456;7.244;2023-03-04T10:45:38;5.50;98.60
48998;DHT22;34807;51.456;7.244;2023-03-04T10:48:04;5.50;98.60
48998;DHT22;34807;51.456;7.244;2023-03-04T10:50:30;5.50;98.60
48998;DHT22;34807;51.456;7.244;2023-03-04T10:52:57;5.50;98.60
48998;DHT22;34807;51.456;7.244;2023-03-04T10:55:25;5.50;98.70
48998;DHT22;34807;51.456;7.244;2023-03-04T10:57:53;5.50;98.70
48998;DHT22;34807;51.456;7.244;2023-03-04T11:02:45;5.50;98.70
48998;DHT22;34807;51.456;7.244;2023-03-04T11:12:36;5.50;98.80
48998;DHT22;34807;51.456;7.244;2023-03-04T11:15:02;5.50;98.90
48998;DHT22;34807;51.456;7.244;2023-03-04T11:17:29;5.50;98.90
48998;DHT22;34807;51.456;7.244;2023-03-04T11:22:28;5.50;98.90
48998;DHT22;34807;51.456;7.244;2023-03-04T11:24:57;5.50;99.00
48998;DHT22;34807;51.456;7.244;2023-03-04T11:27:27;5.50;99.00
48998;DHT22;34807;51.456;7.244;2023-03-04T11:32:39;5.50;99.00
48998;DHT22;34807;51.456;7.244;2023-03-04T11:37:46;5.60;98.90
48998;DHT22;34807;51.456;7.244;2023-03-04T11:40:15;5.60;98.80
48998;DHT22;34807;51.456;7.244;2023-03-04T11:42:53;5.60;98.80
48998;DHT22;34807;51.456;7.244;2023-03-04T11:45:27;5.60;98.80
48998;DHT22;34807;51.456;7.244;2023-03-04T11:51:13;5.60;98.80
48998;DHT22;34807;51.456;7.244;2023-03-04T11:53:30;5.70;98.90
48998;DHT22;34807;51.456;7.244;2023-03-04T11:56:09;5.70;98.90
48998;DHT22;34807;51.456;7.244;2023-03-04T12:01:09;5.90;98.80
48998;DHT22;34807;51.456;7.244;2023-03-04T12:19:36;6.00;98.60
48998;DHT22;34807;51.456;7.244;2023-03-04T12:31:55;6.00;99.00
48998;DHT22;34807;51.456;7.244;2023-03-04T12:37:18;6.00;98.90
48998;DHT22;34807;51.456;7.244;2023-03-04T12:45:26;6.00;99.10
48998;DHT22;34807;51.456;7.244;2023-03-04T12:55:57;6.00;99.00
48998;DHT22;34807;51.456;7.244;2023-03-04T12:58:28;6.00;99.10
48998;DHT22;34807;51.456;7.244;2023-03-04T13:10:59;6.00;99.20
48998;DHT22;34807;51.456;7.244;2023-03-04T13:16:03;6.00;99.30
48998;DHT22;34807;51.456;7.244;2023-03-04T13:18:30;6.00;99.30
48998;DHT22;34807;51.456;7.244;2023-03-04T13:23:40;6.00;99.30
48998;DHT22;34807;51.456;7.244;2023-03-04T13:26:20;6.00;99.30
48998;DHT22;34807;51.456;7.244;2023-03-04T13:28:51;6.00;99.30
48998;DHT22;34807;51.456;7.244;2023-03-04T13:31:18;6.10;99.30
48998;DHT22;34807;51.456;7.244;2023-03-04T13:39:00;6.10;99.40
48998;DHT22;34807;51.456;7.244;2023-03-04T13:44:02;6.00;99.50
48998;DHT22;34807;51.456;7.244;2023-03-04T13:46:38;6.00;99.50
48998;DHT22;34807;51.456;7.244;2023-03-04T13:49:05;6.00;99.60
48998;DHT22;34807;51.456;7.244;2023-03-04T13:56:46;6.00;99.60
48998;DHT22;34807;51.456;7.244;2023-03-04T13:59:14;6.00;99.70
48998;DHT22;34807;51.456;7.244;2023-03-04T14:06:41;6.00;99.70
48998;DHT22;34807;51.456;7.244;2023-03-04T14:09:11;6.10;99.60
48998;DHT22;34807;51.456;7.244;2023-03-04T14:11:38;6.10;99.60
48998;DHT22;34807;51.456;7.244;2023-03-04T14:14:09;6.10;99.40
48998;DHT22;34807;51.456;7.244;2023-03-04T14:21:46;6.10;99.50
48998;DHT22;34807;51.456;7.244;2023-03-04T14:24:12;6.10;99.60
48998;DHT22;34807;51.456;7.244;2023-03-04T14:26:38;6.10;99.50
48998;DHT22;34807;51.456;7.244;2023-03-04T14:32:09;6.10;99.60
48998;DHT22;34807;51.456;7.244;2023-03-04T14:34:37;6.10;99.60
48998;DHT22;34807;51.456;7.244;2023-03-04T14:37:03;6.10;99.60
48998;DHT22;34807;51.456;7.244;2023-03-04T14:39:41;6.10;99.60
48998;DHT22;34807;51.456;7.244;2023-03-04T14:42:08;6.10;99.60
48998;DHT22;34807;51.456;7.244;2023-03-04T14:44:41;6.20;99.50
48998;DHT22;34807;51.456;7.244;2023-03-04T14:47:11;6.20;99.70
48998;DHT22;34807;51.456;7.244;2023-03-04T14:49:41;6.20;99.40
48998;DHT22;34807;51.456;7.244;2023-03-04T14:52:24;6.20;99.50
48998;DHT22;34807;51.456;7.244;2023-03-04T14:57:30;6.20;99.50
48998;DHT22;34807;51.456;7.244;2023-03-04T15:00:13;6.10;99.50
48998;DHT22;34807;51.456;7.244;2023-03-04T15:02:38;6.10;99.50
48998;DHT22;34807;51.456;7.244;2023-03-04T15:05:16;6.10;99.60
48998;DHT22;34807;51.456;7.244;2023-03-04T15:07:42;6.10;99.60
48998;DHT22;34807;51.456;7.244;2023-03-04T15:10:10;6.10;99.60
48998;DHT22;34807;51.456;7.244;2023-03-04T15:12:36;6.10;99.70
48998;DHT22;34807;51.456;7.244;2023-03-04T15:15:47;6.10;99.70
48998;DHT22;34807;51.456;7.244;2023-03-04T15:17:55;6.10;99.70
48998;DHT22;34807;51.456;7.244;2023-03-04T15:20:25;6.10;99.80
48998;DHT22;34807;51.456;7.244;2023-03-04T15:25:17;6.10;99.80
48998;DHT22;34807;51.456;7.244;2023-03-04T15:27:43;6.00;99.80
48998;DHT22;34807;51.456;7.244;2023-03-04T15:30:28;6.10;99.80
48998;DHT22;34807;51.456;7.244;2023-03-04T15:32:57;6.10;99.90
48998;DHT22;34807;51.456;7.244;2023-03-04T15:35:23;6.00;99.80
48998;DHT22;34807;51.456;7.244;2023-03-04T15:37:50;6.00;99.90
48998;DHT22;34807;51.456;7.244;2023-03-04T15:40:28;6.00;99.90
48998;DHT22;34807;51.456;7.244;2023-03-04T15:42:55;6.00;99.80
48998;DHT22;34807;51.456;7.244;2023-03-04T15:45:22;6.00;99.70
48998;DHT22;34807;51.456;7.244;2023-03-04T15:47:48;6.00;99.80
48998;DHT22;34807;51.456;7.244;2023-03-04T15:50:14;6.00;99.90
48998;DHT22;34807;51.456;7.244;2023-03-04T15:52:39;6.00;99.90
48998;DHT22;34807;51.456;7.244;2023-03-04T15:55:06;6.00;99.80
48998;DHT22;34807;51.456;7.244;2023-03-04T15:57:31;6.00;99.80
48998;DHT22;34807;51.456;7.244;2023-03-04T15:59:57;6.00;99.80
48998;DHT22;34807;51.456;7.244;2023-03-04T16:02:23;6.00;99.70
48998;DHT22;34807;51.456;7.244;2023-03-04T16:04:49;6.00;99.70
48998;DHT22;34807;51.456;7.244;2023-03-04T16:07:16;6.00;99.70
48998;DHT22;34807;51.456;7.244;2023-03-04T16:09:42;6.00;99.70
48998;DHT22;34807;51.456;7.244;2023-03-04T16:12:09;6.00;99.70
48998;DHT22;34807;51.456;7.244;2023-03-04T16:14:35;6.00;99.70
48998;DHT22;34807;51.456;7.244;2023-03-04T16:17:01;6.00;99.70
48998;DHT22;34807;51.456;7.244;2023-03-04T16:19:26;6.00;99.70
48998;DHT22;34807;51.456;7.244;2023-03-04T16:21:52;6.00;99.70
48998;DHT22;34807;51.456;7.244;2023-03-04T16:24:17;6.00;99.70
48998;DHT22;34807;51.456;7.244;2023-03-04T16:26:44;6.00;99.70
48998;DHT22;34807;51.456;7.244;2023-03-04T16:29:10;6.00;99.70
48998;DHT22;34807;51.456;7.244;2023-03-04T16:31:35;6.00;99.70
48998;DHT22;34807;51.456;7.244;2023-03-04T16:34:01;6.00;99.70
48998;DHT22;34807;51.456;7.244;2023-03-04T16:36:26;6.00;99.70
48998;DHT22;34807;51.456;7.244;2023-03-04T16:38:53;5.90;99.70
48998;DHT22;34807;51.456;7.244;2023-03-04T16:41:19;6.00;99.80
48998;DHT22;34807;51.456;7.244;2023-03-04T16:43:46;6.00;99.70
48998;DHT22;34807;51.456;7.244;2023-03-04T16:46:12;5.90;99.70
48998;DHT22;34807;51.456;7.244;2023-03-04T16:48:38;5.90;99.70
48998;DHT22;34807;51.456;7.244;2023-03-04T16:51:05;5.90;99.60
48998;DHT22;34807;51.456;7.244;2023-03-04T16:53:35;5.90;99.70
48998;DHT22;34807;51.456;7.244;2023-03-04T16:56:05;5.90;99.70
48998;DHT22;34807;51.456;7.244;2023-03-04T16:58:31;5.90;99.70
48998;DHT22;34807;51.456;7.244;2023-03-04T17:00:57;5.90;99.70
48998;DHT22;34807;51.456;7.244;2023-03-04T17:03:23;5.90;99.60
48998;DHT22;34807;51.456;7.244;2023-03-04T17:05:48;5.90;99.60
48998;DHT22;34807;51.456;7.244;2023-03-04T17:08:14;5.90;99.60
48998;DHT22;34807;51.456;7.244;2023-03-04T17:10:39;5.80;99.60
48998;DHT22;34807;51.456;7.244;2023-03-04T17:13:05;5.80;99.60
48998;DHT22;34807;51.456;7.244;2023-03-04T17:15:30;5.80;99.60
48998;DHT22;34807;51.456;7.244;2023-03-04T17:17:56;5.80;99.60
48998;DHT22;34807;51.456;7.244;2023-03-04T17:20:21;5.80;99.40
48998;DHT22;34807;51.456;7.244;2023-03-04T17:22:47;5.80;99.40
48998;DHT22;34807;51.456;7.244;2023-03-04T17:25:13;5.80;99.40
48998;DHT22;34807;51.456;7.244;2023-03-04T17:27:39;5.80;99.40
48998;DHT22;34807;51.456;7.244;2023-03-04T17:30:05;5.80;99.30
48998;DHT22;34807;51.456;7.244;2023-03-04T17:32:31;5.80;99.40
48998;DHT22;34807;51.456;7.244;2023-03-04T17:34:57;5.80;99.40
48998;DHT22;34807;51.456;7.244;2023-03-04T17:37:23;5.80;99.30
48998;DHT22;34807;51.456;7.244;2023-03-04T17:39:48;5.80;99.30
48998;DHT22;34807;51.456;7.244;2023-03-04T17:42:14;5.80;99.40
48998;DHT22;34807;51.456;7.244;2023-03-04T17:44:39;5.80;99.40
48998;DHT22;34807;51.456;7.244;2023-03-04T17:47:05;5.70;99.40
48998;DHT22;34807;51.456;7.244;2023-03-04T17:49:31;5.70;99.40
48998;DHT22;34807;51.456;7.244;2023-03-04T17:51:58;5.70;99.50
48998;DHT22;34807;51.456;7.244;2023-03-04T17:54:24;5.70;99.60
48998;DHT22;34807;51.456;7.244;2023-03-04T17:56:49;5.70;99.40